Fowler, Indiana
Current Conditions -  °F | °C
As of 10:55 PM on Friday 24 Oct 2014 (Local Time) from KRZL Reporting Station
Broken Clouds Broken Clouds  
Wind Chill: 54°   Ceiling: 10000
Heat Index: 54°   Visibility: 10mi
Dew Point: 52°   Wind: 6mph
Humidity: 94%   Direction: 210°SSW
Pressure: 29.99"   Gusts: NA
Location:  40.62°N, 87.32°W
Report Text: KRZL 250255Z AUTO 21005KT 10SM BKN100 12/11 A2999 RMK AO2
Loading
Personal Weather Stations






























Interactive Weather Map
Tropical Storm Tracking
New forecast layout! Learn more

10-Day Weather Forecast

Advertisements
Track Severe Weather on mobile